Time;durP1;ratioP1;P1;durP2;ratioP2;P2;SDS_P1;SDS_P2;PMS_P1;PMS_P2;Temp;Humidity;BMP_temperature;BMP_pressure;BME280_temperature;BME280_humidity;BME280_pressure;Samples;Min_cycle;Max_cycle;Signal;HPM_P1;HPM_P2
2021/07/25 00:00:46;;;;;;;12.20;10.80;;;19.30;82.30;;;18.59;77.01;97307.81;4990993;28;20467;-80
2021/07/25 00:03:13;;;;;;;11.40;10.30;;;19.30;83.00;;;18.39;77.49;97286.91;4992823;28;20548;-86
2021/07/25 00:05:43;;;;;;;13.20;11.90;;;19.20;83.70;;;18.63;76.84;97297.94;4993261;28;20473;-82
2021/07/25 00:08:12;;;;;;;12.27;10.97;;;19.20;84.20;;;18.53;76.83;97298.84;4993050;28;20521;-88
2021/07/25 00:10:41;;;;;;;12.70;11.00;;;19.20;83.70;;;18.44;77.25;97299.72;4994518;28;20453;-83
2021/07/25 00:13:08;;;;;;;12.00;10.90;;;19.10;83.80;;;18.31;77.16;97291.06;4993880;28;20453;-83
2021/07/25 00:15:36;;;;;;;12.13;11.00;;;19.00;84.00;;;18.31;77.20;97284.75;4989984;28;20540;-85
2021/07/25 00:18:03;;;;;;;12.23;10.70;;;19.10;84.40;;;18.26;77.49;97293.81;4991735;28;20477;-84
2021/07/25 00:20:31;;;;;;;12.97;11.57;;;19.00;84.50;;;18.23;77.89;97308.03;4991414;28;20449;-84
2021/07/25 00:23:00;;;;;;;12.40;11.20;;;19.00;84.80;;;17.96;77.97;97279.19;4993293;28;20517;-82
2021/07/25 00:25:27;;;;;;;11.57;10.37;;;18.80;85.10;;;18.08;78.18;97298.84;4993035;28;20541;-81
2021/07/25 00:27:55;;;;;;;11.80;10.70;;;18.70;85.60;;;17.98;78.08;97282.47;4991708;28;20457;-85
2021/07/25 00:30:24;;;;;;;11.17;9.97;;;18.70;85.40;;;17.98;78.01;97290.69;4991309;28;20463;-84
2021/07/25 00:32:52;;;;;;;13.43;11.43;;;18.70;85.70;;;17.98;78.13;97296.16;4993141;28;20455;-84
2021/07/25 00:35:20;;;;;;;11.50;10.40;;;18.60;85.90;;;17.92;78.53;97291.78;4990088;28;20535;-82
2021/07/25 00:37:48;;;;;;;10.93;9.83;;;18.60;86.40;;;18.03;77.33;97274.28;4993199;28;20518;-83
2021/07/25 00:40:26;;;;;;;10.60;9.60;;;18.70;85.70;;;18.06;77.20;97283.84;4990994;28;20458;-83
2021/07/25 00:42:53;;;;;;;11.17;10.17;;;18.70;84.90;;;18.03;77.83;97298.88;4993736;28;20544;-82
2021/07/25 00:45:20;;;;;;;11.93;9.93;;;18.70;85.30;;;18.03;77.41;97293.41;5002481;28;20476;-85
2021/07/25 00:47:48;;;;;;;9.70;8.80;;;18.70;84.90;;;18.03;77.47;97287.94;4996605;28;20460;-84
2021/07/25 00:50:16;;;;;;;10.53;9.40;;;18.70;84.90;;;17.95;77.49;97283.03;4993715;28;20458;-85
2021/07/25 00:52:44;;;;;;;11.90;8.80;;;18.60;84.60;;;18.09;76.73;97289.53;4990392;28;20457;-82
2021/07/25 00:55:13;;;;;;;11.00;9.67;;;18.70;84.90;;;18.19;76.69;97285.91;4993846;28;20461;-86
2021/07/25 00:57:41;;;;;;;10.90;9.33;;;18.70;84.50;;;18.16;76.57;97280.22;4987664;28;20520;-86
2021/07/25 01:00:11;;;;;;;9.57;8.63;;;18.80;84.00;;;18.16;76.43;97286.50;4993889;28;20526;-81
2021/07/25 01:02:48;;;;;;;11.10;10.00;;;18.80;83.60;;;18.12;76.23;97278.06;4998721;28;20463;-85
2021/07/25 01:05:23;;;;;;;12.50;8.63;;;18.80;83.60;;;18.04;76.58;97289.56;4990978;28;20450;-86
2021/07/25 01:07:56;;;;;;;9.63;8.67;;;18.70;83.40;;;18.04;76.83;97296.94;4997334;28;20471;-85
2021/07/25 01:10:28;;;;;;;9.90;8.90;;;18.70;83.60;;;18.07;76.49;97291.75;4989178;28;20524;-80
2021/07/25 01:12:59;;;;;;;9.83;8.93;;;18.70;83.70;;;17.96;76.92;97276.47;4991880;28;20521;-83
2021/07/25 01:15:32;;;;;;;9.17;8.23;;;18.70;83.20;;;18.04;76.37;97280.53;4994205;28;20469;-83
2021/07/25 01:18:00;;;;;;;10.97;8.83;;;18.70;83.30;;;17.96;76.55;97290.94;4995605;28;20484;-84
2021/07/25 01:20:29;;;;;;;9.97;8.97;;;18.70;82.90;;;17.95;76.67;97288.50;4986585;28;20540;-85
2021/07/25 01:22:58;;;;;;;8.90;8.00;;;18.60;83.20;;;17.86;76.83;97301.13;4988565;28;20966;-85
2021/07/25 01:25:27;;;;;;;9.10;8.10;;;18.50;82.90;;;17.93;76.49;97309.81;4991940;28;20460;-82
2021/07/25 01:27:59;;;;;;;9.10;8.10;;;18.60;82.80;;;18.12;76.08;97318.22;4991228;28;20497;-81
2021/07/25 01:30:31;;;;;;;9.30;8.40;;;18.70;83.00;;;18.19;75.25;97315.19;4991428;28;20520;-84
2021/07/25 01:33:02;;;;;;;10.07;8.67;;;18.80;81.90;;;18.24;75.16;97309.69;4984034;28;20469;-84
2021/07/25 01:35:32;;;;;;;9.63;8.57;;;18.90;81.60;;;18.24;75.01;97317.88;4991882;28;20469;-86
2021/07/25 01:38:00;;;;;;;8.67;7.87;;;18.90;80.80;;;18.18;75.08;97317.09;4993190;28;20469;-83
2021/07/25 01:40:27;;;;;;;11.20;9.10;;;18.90;80.90;;;18.20;74.69;97319.56;5003692;28;20525;-87
2021/07/25 01:42:56;;;;;;;9.10;8.13;;;18.90;80.30;;;18.09;75.22;97311.41;4988039;28;20454;-81
2021/07/25 01:45:24;;;;;;;8.87;7.97;;;18.80;80.30;;;18.08;75.20;97293.38;4993414;28;20639;-83
2021/07/25 01:47:51;;;;;;;9.27;7.77;;;18.80;80.90;;;18.14;74.95;97307.81;4991730;28;20446;-84
2021/07/25 01:50:18;;;;;;;10.40;7.83;;;18.80;80.50;;;18.12;75.45;97319.06;4986833;28;20433;-80
2021/07/25 01:52:46;;;;;;;9.70;8.70;;;18.80;80.80;;;18.04;75.76;97314.19;4993249;28;20481;-82
2021/07/25 01:55:14;;;;;;;9.03;8.13;;;18.70;81.30;;;18.03;75.70;97322.63;4991336;28;20532;-89
2021/07/25 01:57:41;;;;;;;10.87;9.07;;;18.70;81.30;;;18.01;75.87;97319.34;4997091;28;20473;-88
2021/07/25 02:00:09;;;;;;;10.07;8.30;;;18.70;81.80;;;18.08;75.37;97317.97;4997768;28;20565;-80
2021/07/25 02:02:37;;;;;;;9.53;7.90;;;18.70;81.70;;;18.00;75.79;97318.53;4995043;28;20549;-79
2021/07/25 02:05:05;;;;;;;9.30;8.50;;;18.70;81.60;;;17.89;75.96;97317.75;4993463;28;20500;-81
2021/07/25 02:07:32;;;;;;;9.90;8.93;;;18.60;81.70;;;17.72;76.53;97323.59;4991958;28;20468;-83
2021/07/25 02:10:01;;;;;;;11.30;8.30;;;18.50;82.10;;;17.57;76.98;97335.34;4989354;28;20469;-86
2021/07/25 02:12:27;;;;;;;9.00;8.20;;;18.30;82.50;;;17.54;77.60;97350.41;4984375;28;20446;-85
2021/07/25 02:14:54;;;;;;;9.60;8.60;;;18.20;83.80;;;17.50;77.51;97349.31;4989906;28;20520;-82
2021/07/25 02:17:21;;;;;;;9.03;8.23;;;18.20;84.00;;;17.40;77.97;97349.34;4991123;28;20567;-84
2021/07/25 02:19:48;;;;;;;9.80;8.90;;;18.10;84.50;;;17.39;77.55;97351.25;4991308;28;20486;-82
2021/07/25 02:22:15;;;;;;;9.17;7.83;;;18.10;84.80;;;17.46;77.70;97358.34;4993284;28;20521;-82
2021/07/25 02:24:42;;;;;;;10.63;9.00;;;18.10;85.50;;;17.40;77.92;97349.34;4991740;28;20465;-82
2021/07/25 02:27:10;;;;;;;9.50;8.60;;;18.10;85.20;;;17.32;78.24;97352.63;4990783;28;20532;-84
2021/07/25 02:29:37;;;;;;;11.10;8.93;;;18.00;85.10;;;17.25;78.36;97337.38;4984548;28;20468;-81
2021/07/25 02:32:05;;;;;;;10.87;8.27;;;17.90;85.40;;;17.13;78.63;97366.84;4990589;28;20449;-82
2021/07/25 02:34:32;;;;;;;10.50;9.43;;;17.90;85.80;;;16.88;79.22;97354.81;4995086;28;20475;-85
2021/07/25 02:36:59;;;;;;;11.87;9.03;;;17.80;86.10;;;16.86;79.55;97357.00;4994371;28;20453;-82
2021/07/25 02:39:26;;;;;;;8.93;8.03;;;17.80;86.80;;;16.88;79.70;97379.38;4984156;28;20446;-80
2021/07/25 02:41:53;;;;;;;10.17;9.13;;;17.70;87.10;;;16.96;80.02;97378.84;4987307;28;20457;-82
2021/07/25 02:44:22;;;;;;;9.90;8.40;;;17.60;88.40;;;16.98;79.50;97381.28;4990821;28;20496;-85
2021/07/25 02:46:49;;;;;;;10.07;9.00;;;17.70;88.30;;;16.86;79.93;97389.72;4989921;28;20446;-82
2021/07/25 02:49:16;;;;;;;9.40;8.30;;;17.60;88.10;;;16.81;79.97;97387.81;4985763;28;20460;-84
2021/07/25 02:51:43;;;;;;;11.83;9.90;;;17.50;88.30;;;16.70;80.14;97381.53;4989632;28;20446;-81
2021/07/25 02:54:10;;;;;;;11.00;9.40;;;17.50;89.10;;;16.79;80.10;97372.84;4984894;28;20484;-83
2021/07/25 02:56:37;;;;;;;11.57;10.20;;;17.50;89.50;;;16.77;80.47;97375.81;4996207;28;20480;-85
2021/07/25 02:59:04;;;;;;;9.90;8.90;;;17.50;89.50;;;16.75;80.55;97377.16;4981410;28;20450;-80
2021/07/25 03:01:33;;;;;;;11.93;10.13;;;17.50;89.70;;;16.80;80.61;97379.91;4986957;28;21371;-81
2021/07/25 03:04:00;;;;;;;11.83;8.90;;;17.50;89.90;;;16.80;80.48;97366.28;4987802;28;20513;-82
2021/07/25 03:06:27;;;;;;;11.33;9.67;;;17.50;89.60;;;16.81;80.40;97354.28;4987490;28;20458;-81
2021/07/25 03:08:54;;;;;;;12.17;10.37;;;17.60;89.30;;;16.82;80.31;97364.09;4990861;28;20520;-81
2021/07/25 03:11:21;;;;;;;10.73;9.60;;;17.60;89.40;;;16.83;79.93;97361.09;4991310;28;20464;-82
2021/07/25 03:13:48;;;;;;;9.30;8.40;;;17.60;89.20;;;16.92;79.57;97358.66;4990704;28;20454;-85
2021/07/25 03:16:15;;;;;;;11.87;10.17;;;17.60;88.90;;;16.88;79.59;97343.91;4991007;28;20472;-83
2021/07/25 03:18:43;;;;;;;10.17;9.17;;;17.70;88.70;;;16.91;79.85;97350.72;4981207;28;20456;-82
2021/07/25 03:21:10;;;;;;;10.13;9.10;;;17.70;88.90;;;16.85;80.35;97342.56;4990107;28;20795;-82
2021/07/25 03:23:37;;;;;;;9.90;8.90;;;17.60;89.20;;;16.85;80.19;97344.44;4989206;28;20462;-81
2021/07/25 03:26:04;;;;;;;11.07;9.80;;;17.60;89.50;;;16.82;80.16;97345.81;4990868;28;20520;-81
2021/07/25 03:28:31;;;;;;;10.00;9.00;;;17.60;89.70;;;16.75;80.50;97352.63;4991081;28;20456;-82
2021/07/25 03:30:58;;;;;;;10.33;9.33;;;17.60;89.60;;;16.74;80.40;97342.81;4986056;28;20529;-83
2021/07/25 03:33:25;;;;;;;11.70;9.83;;;17.60;89.90;;;16.64;80.38;97324.53;4986837;28;20516;-84
2021/07/25 03:35:54;;;;;;;10.60;9.50;;;17.60;89.60;;;16.80;79.77;97336.28;4993834;28;20576;-88
2021/07/25 03:38:21;;;;;;;9.47;8.57;;;17.60;89.50;;;16.86;79.91;97340.63;4998437;28;20465;-85
2021/07/25 03:40:48;;;;;;;12.60;9.07;;;17.60;89.30;;;16.78;80.27;97357.56;4995173;28;20445;-82
2021/07/25 03:43:16;;;;;;;10.07;9.10;;;17.60;89.30;;;16.73;80.52;97349.34;4993188;28;20456;-85
2021/07/25 03:45:45;;;;;;;10.50;9.50;;;17.70;89.60;;;16.74;80.43;97354.56;4990837;28;20459;-81
2021/07/25 03:48:12;;;;;;;10.57;9.57;;;17.60;89.60;;;16.65;80.57;97359.72;4983959;28;20529;-86
2021/07/25 03:50:41;;;;;;;10.23;9.23;;;17.60;89.10;;;16.77;80.19;97347.75;4989791;28;20529;-82
2021/07/25 03:53:10;;;;;;;10.27;9.03;;;17.60;89.70;;;16.88;79.69;97349.34;4992321;28;20467;-83
2021/07/25 03:55:38;;;;;;;11.20;9.33;;;17.60;89.00;;;16.84;79.54;97343.66;4995811;28;20499;-85
2021/07/25 03:58:05;;;;;;;10.43;9.33;;;17.70;88.60;;;17.01;78.70;97347.22;4988477;28;20614;-81
2021/07/25 04:00:32;;;;;;;9.97;9.00;;;17.70;88.00;;;16.96;79.10;97337.91;4990226;28;20461;-84
2021/07/25 04:03:00;;;;;;;8.80;8.00;;;17.90;88.20;;;17.03;78.96;97342.28;4991997;28;20459;-80
2021/07/25 04:05:27;;;;;;;11.10;9.33;;;17.80;87.50;;;17.09;78.92;97335.75;4992249;28;20481;-85
2021/07/25 04:07:53;;;;;;;9.80;8.80;;;17.90;87.30;;;17.28;78.05;97336.81;4994099;28;20552;-82
2021/07/25 04:10:22;;;;;;;10.17;9.30;;;18.10;86.30;;;17.28;77.76;97325.88;4993150;28;20536;-82
2021/07/25 04:12:50;;;;;;;10.83;9.40;;;18.20;85.00;;;17.26;78.04;97322.63;4982120;28;20529;-83
2021/07/25 04:15:17;;;;;;;10.23;9.10;;;18.20;85.20;;;17.20;78.30;97334.63;4995786;28;20469;-83
2021/07/25 04:17:44;;;;;;;9.70;8.80;;;18.10;85.40;;;17.20;78.39;97337.34;4992431;28;20497;-84
2021/07/25 04:20:11;;;;;;;10.20;9.23;;;18.00;85.80;;;17.21;78.54;97328.09;4998194;28;20484;-80
2021/07/25 04:22:39;;;;;;;8.87;7.97;;;18.10;85.70;;;17.18;78.25;97342.28;4996996;28;20492;-83
2021/07/25 04:25:08;;;;;;;11.57;8.40;;;18.00;85.30;;;17.19;78.17;97338.44;4985994;28;20504;-86
2021/07/25 04:27:39;;;;;;;10.37;9.37;;;18.00;85.60;;;17.17;78.46;97332.44;4987178;28;20445;-84
2021/07/25 04:30:08;;;;;;;9.30;8.43;;;18.00;85.70;;;17.18;78.33;97331.34;4991248;28;20514;-81
2021/07/25 04:32:35;;;;;;;10.10;8.93;;;18.00;86.00;;;17.24;77.84;97341.19;4995755;28;20481;-82
2021/07/25 04:35:03;;;;;;;9.67;8.17;;;18.00;85.60;;;17.15;78.39;97339.31;4993183;28;20541;-85
2021/07/25 04:37:31;;;;;;;10.00;9.00;;;17.90;85.70;;;17.17;78.62;97340.63;4993150;28;20564;-82
2021/07/25 04:39:58;;;;;;;9.70;8.90;;;18.00;86.60;;;17.14;78.20;97343.94;4992921;28;20462;-80
2021/07/25 04:42:27;;;;;;;10.03;8.97;;;17.90;86.00;;;17.11;78.28;97339.81;4993705;28;20516;-88
2021/07/25 04:45:04;;;;;;;10.80;8.13;;;17.90;86.00;;;17.15;77.88;97336.56;4993421;28;20457;-83
2021/07/25 04:47:36;;;;;;;9.70;8.80;;;17.90;85.70;;;17.22;78.21;97346.09;5000362;28;20453;-86
2021/07/25 04:50:09;;;;;;;9.70;8.70;;;18.00;85.70;;;17.14;78.13;97330.28;4989433;28;20490;-82
2021/07/25 04:52:40;;;;;;;9.90;8.90;;;18.00;85.90;;;17.21;78.02;97343.66;4995322;28;20484;-82
2021/07/25 04:55:11;;;;;;;10.17;8.90;;;18.00;85.50;;;17.32;77.29;97352.63;4993377;28;20537;-85
2021/07/25 04:57:42;;;;;;;10.43;8.37;;;18.10;85.10;;;17.36;77.15;97356.44;4994039;28;20548;-82
2021/07/25 05:00:14;;;;;;;12.80;9.60;;;18.00;85.00;;;17.27;77.77;97361.63;4987231;28;20449;-85
2021/07/25 05:02:42;;;;;;;10.37;8.37;;;18.00;85.00;;;17.26;77.42;97355.38;4992188;28;20457;-81
2021/07/25 05:05:11;;;;;;;9.87;8.87;;;18.00;85.10;;;17.18;76.92;97325.91;4992888;28;20468;-82
2021/07/25 05:07:42;;;;;;;9.50;8.60;;;18.10;84.90;;;17.53;76.97;97365.16;4992772;28;20533;-87
2021/07/25 05:10:11;;;;;;;9.50;8.50;;;18.10;85.00;;;17.51;76.49;97371.97;4992020;28;20467;-83
2021/07/25 05:12:45;;;;;;;9.87;9.00;;;18.10;84.70;;;17.43;77.32;97362.44;4993187;28;20529;-86
2021/07/25 05:15:18;;;;;;;11.07;8.57;;;18.10;84.90;;;17.42;77.44;97371.72;4994093;28;20483;-85
2021/07/25 05:17:53;;;;;;;12.43;9.07;;;18.20;85.30;;;17.62;77.46;97383.69;4990451;28;21241;-84
2021/07/25 05:20:22;;;;;;;9.77;8.77;;;18.30;85.40;;;17.80;76.26;97372.16;5002073;28;20457;-87
2021/07/25 05:22:57;;;;;;;9.83;8.40;;;18.50;84.10;;;17.77;76.51;97369.19;4995009;28;20452;-83
2021/07/25 05:25:25;;;;;;;11.93;10.50;;;18.50;83.50;;;17.86;76.50;97377.63;4989283;28;20455;-82
2021/07/25 05:27:55;;;;;;;9.20;8.40;;;18.60;83.40;;;17.99;75.78;97377.84;4993780;28;20517;-84
2021/07/25 05:30:26;;;;;;;9.33;8.40;;;18.70;83.00;;;18.22;74.93;97380.22;4990032;28;20457;-89
2021/07/25 05:32:55;;;;;;;10.00;9.07;;;18.90;82.40;;;18.43;74.42;97380.13;4989455;28;20485;-88
2021/07/25 05:35:21;;;;;;;10.87;9.77;;;19.10;81.60;;;18.47;73.97;97383.94;4992707;28;20477;-89
2021/07/25 05:37:48;;;;;;;9.33;8.37;;;19.20;80.30;;;18.59;73.81;97381.69;4991184;28;20473;-79
2021/07/25 05:40:17;;;;;;;9.57;8.77;;;19.30;80.10;;;18.58;73.83;97382.78;4992200;28;20489;-83
2021/07/25 05:42:44;;;;;;;9.90;8.90;;;19.40;79.40;;;18.87;72.84;97384.75;4994172;28;20495;-84
2021/07/25 05:45:13;;;;;;;9.80;9.00;;;19.60;78.80;;;18.80;72.64;97379.63;4988450;28;20476;-87
2021/07/25 05:47:41;;;;;;;9.87;9.00;;;19.60;77.60;;;19.02;72.08;97383.84;4992069;28;20453;-82
2021/07/25 05:50:10;;;;;;;9.43;8.47;;;19.70;77.40;;;18.88;72.39;97385.56;4981747;28;20461;-82
2021/07/25 05:52:49;;;;;;;11.70;8.90;;;19.60;77.00;;;19.30;71.26;97391.53;4990788;28;20453;-81
2021/07/25 05:55:20;;;;;;;10.47;9.43;;;19.90;76.40;;;19.51;70.36;97392.16;4993032;28;21071;-83
2021/07/25 05:57:47;;;;;;;9.27;8.43;;;20.30;75.20;;;19.77;69.58;97400.13;4988844;28;20553;-82
2021/07/25 06:00:15;;;;;;;9.33;8.43;;;20.60;74.00;;;19.95;69.18;97406.81;4995170;28;20536;-82
2021/07/25 06:02:56;;;;;;;9.50;8.60;;;20.80;73.10;;;20.07;68.64;97409.94;4990529;28;20548;-81
2021/07/25 06:05:24;;;;;;;9.77;8.77;;;20.90;72.10;;;20.31;67.77;97398.13;4987465;28;20450;-87
2021/07/25 06:07:52;;;;;;;9.23;8.33;;;21.10;71.50;;;20.67;66.63;97407.81;4987886;28;20459;-90
2021/07/25 06:10:20;;;;;;;8.80;8.00;;;21.50;70.50;;;20.82;65.97;97420.50;4985981;28;20468;-86
2021/07/25 06:16:34;;;;;;;9.50;8.60;;;22.10;68.40;;;20.86;66.05;97429.81;4991294;28;20461;-83
2021/07/25 06:19:02;;;;;;;9.37;8.23;;;22.10;67.90;;;20.69;66.65;97429.44;4993462;28;20481;-82
2021/07/25 06:21:29;;;;;;;9.20;8.30;;;21.80;67.90;;;20.70;66.32;97420.94;4993820;28;20469;-90
2021/07/25 06:23:57;;;;;;;8.77;7.90;;;21.80;68.20;;;20.71;66.32;97438.22;4993598;28;20477;-87
2021/07/25 06:26:24;;;;;;;8.23;7.43;;;21.80;68.00;;;20.83;66.10;97430.38;4988684;28;20452;-84
2021/07/25 06:28:52;;;;;;;8.40;7.70;;;21.70;67.80;;;20.79;65.91;97440.28;4991487;28;20479;-89
2021/07/25 06:31:19;;;;;;;8.70;7.30;;;21.80;67.50;;;20.73;65.61;97414.84;4991180;28;20449;-83
2021/07/25 06:33:46;;;;;;;10.03;7.83;;;21.80;67.40;;;20.97;64.90;97418.66;4990602;28;20497;-83
2021/07/25 06:36:15;;;;;;;8.13;7.43;;;21.90;67.10;;;20.82;65.51;97428.75;4990802;28;20538;-86
2021/07/25 06:38:43;;;;;;;8.17;7.40;;;22.00;66.80;;;20.63;66.33;97426.78;4990185;28;20536;-85
2021/07/25 06:41:10;;;;;;;6.87;6.37;;;21.80;67.00;;;20.66;65.81;97415.22;4984977;28;20482;-85
2021/07/25 06:43:37;;;;;;;8.60;7.13;;;21.70;67.10;;;20.62;66.34;97427.91;4992240;28;20465;-82
2021/07/25 06:46:04;;;;;;;8.63;7.20;;;21.70;67.20;;;20.57;66.17;97427.97;4989316;28;20465;-85
2021/07/25 06:48:32;;;;;;;10.53;7.13;;;21.60;67.10;;;20.75;65.88;97417.31;4992094;28;20512;-82
2021/07/25 06:51:01;;;;;;;6.97;6.17;;;21.60;67.30;;;20.77;65.82;97420.56;4991467;28;20464;-85
2021/07/25 06:53:33;;;;;;;7.70;6.87;;;21.60;67.20;;;20.80;65.59;97406.25;4983059;28;20446;-84
2021/07/25 06:56:05;;;;;;;8.57;6.33;;;21.80;67.20;;;20.87;65.14;97409.47;4991253;28;20499;-85
2021/07/25 06:58:33;;;;;;;7.10;6.33;;;21.70;66.90;;;21.15;65.02;97408.75;4984779;28;20513;-83
2021/07/25 07:01:00;;;;;;;6.77;6.07;;;21.80;67.10;;;21.37;64.37;97416.34;4983753;28;20527;-89
2021/07/25 07:03:27;;;;;;;6.57;5.87;;;22.10;66.90;;;21.35;63.72;97418.59;4985638;28;20517;-86
2021/07/25 07:05:53;;;;;;;7.50;6.80;;;22.20;66.10;;;21.36;63.90;97415.53;4988053;28;20521;-85
2021/07/25 07:08:22;;;;;;;6.63;6.03;;;22.30;65.90;;;21.50;63.26;97412.84;4989328;28;20532;-84
2021/07/25 07:10:51;;;;;;;7.73;6.57;;;22.40;65.50;;;21.79;63.18;97411.78;4989679;28;20476;-86
2021/07/25 07:13:19;;;;;;;6.90;6.20;;;22.70;65.50;;;21.98;62.03;97402.63;4988804;28;20476;-85
2021/07/25 07:15:48;;;;;;;10.17;6.47;;;23.00;64.70;;;22.24;61.77;97415.88;4989217;28;20453;-89
2021/07/25 07:18:16;;;;;;;6.63;5.93;;;23.20;64.50;;;22.41;60.67;97414.41;4989172;28;20445;-83
2021/07/25 07:20:43;;;;;;;7.60;6.90;;;23.30;64.00;;;22.44;61.08;97413.78;4987389;28;20455;-86
2021/07/25 07:23:12;;;;;;;6.90;6.30;;;23.50;64.00;;;22.46;60.12;97404.13;5001282;28;20460;-89
2021/07/25 07:25:43;;;;;;;8.30;6.07;;;23.40;63.20;;;22.29;60.69;97401.16;4991169;28;20529;-85
2021/07/25 07:28:13;;;;;;;8.80;6.80;;;23.20;63.50;;;22.49;60.36;97406.28;4990528;28;20501;-86
2021/07/25 07:30:40;;;;;;;8.00;6.50;;;23.40;63.70;;;22.82;59.19;97413.53;4991334;28;20461;-85
2021/07/25 07:33:09;;;;;;;7.40;6.70;;;23.50;62.90;;;22.98;58.52;97385.66;4987155;28;20460;-85
2021/07/25 07:35:36;;;;;;;7.13;5.80;;;23.90;62.70;;;23.37;57.50;97405.38;4988405;28;20481;-85
2021/07/25 07:38:04;;;;;;;7.47;6.60;;;24.10;62.10;;;23.14;58.00;97399.84;4988738;28;20481;-85
2021/07/25 07:40:32;;;;;;;6.87;6.27;;;24.10;61.50;;;23.17;58.35;97386.25;4984181;28;20457;-85
2021/07/25 07:42:59;;;;;;;7.20;6.57;;;24.20;61.70;;;23.51;57.04;97399.78;4987811;28;20445;-87
2021/07/25 07:45:29;;;;;;;7.40;6.80;;;24.40;61.10;;;23.52;56.58;97390.38;4987434;28;20524;-85
2021/07/25 07:47:56;;;;;;;6.40;5.80;;;24.10;61.00;;;23.75;56.18;97397.47;4990046;28;20449;-85
2021/07/25 07:50:23;;;;;;;7.80;6.60;;;24.10;61.40;;;23.33;57.63;97399.69;4991208;28;20521;-85
2021/07/25 07:52:50;;;;;;;8.53;6.10;;;23.90;61.40;;;23.69;57.02;97401.50;4987984;28;20485;-85
2021/07/25 07:55:18;;;;;;;7.57;6.87;;;24.30;61.60;;;23.69;57.09;97398.72;4998779;28;20495;-82
2021/07/25 07:57:45;;;;;;;7.60;6.90;;;24.60;61.30;;;23.72;56.43;97400.06;4993616;28;20477;-85
2021/07/25 08:00:14;;;;;;;7.60;6.87;;;24.30;60.90;;;23.57;57.04;97381.97;4993014;28;20521;-86
2021/07/25 08:02:43;;;;;;;10.33;6.30;;;24.00;61.50;;;23.55;57.77;97374.03;4993478;28;20480;-82
2021/07/25 08:05:12;;;;;;;7.37;6.67;;;23.80;62.30;;;22.99;58.74;97379.81;4994200;28;20763;-84
2021/07/25 08:07:39;;;;;;;8.97;7.60;;;24.00;61.80;;;23.48;57.52;97374.47;5008023;28;20440;-85
2021/07/25 08:10:08;;;;;;;8.77;7.70;;;24.00;61.70;;;23.75;57.32;97389.22;4993612;28;20461;-85
2021/07/25 08:12:36;;;;;;;8.40;6.60;;;24.20;61.70;;;24.04;56.67;97385.13;4994486;28;20464;-86
2021/07/25 08:15:05;;;;;;;7.70;7.00;;;24.50;61.50;;;24.31;56.03;97388.75;4993931;28;20520;-85
2021/07/25 08:17:32;;;;;;;7.47;6.67;;;25.00;61.00;;;24.62;54.85;97384.25;4992975;28;20480;-83
2021/07/25 08:20:00;;;;;;;6.60;6.00;;;25.20;60.40;;;24.64;54.55;97379.22;4990178;28;20511;-81
2021/07/25 08:22:28;;;;;;;9.90;7.27;;;25.40;59.80;;;24.56;54.52;97374.50;4994204;28;20528;-82
2021/07/25 08:24:56;;;;;;;8.23;7.00;;;25.50;59.20;;;24.29;55.53;97363.41;4988290;28;20452;-88
2021/07/25 08:27:26;;;;;;;7.10;6.50;;;25.00;59.90;;;24.11;56.15;97378.31;4986673;28;20542;-83
2021/07/25 08:29:53;;;;;;;9.90;6.93;;;25.00;59.90;;;24.39;55.28;97383.59;4993044;28;20457;-86
2021/07/25 08:32:20;;;;;;;8.63;6.80;;;25.00;59.90;;;24.46;55.10;97376.44;4989219;28;20491;-85
2021/07/25 08:34:47;;;;;;;8.03;7.00;;;25.30;59.80;;;24.45;55.31;97376.75;4986504;28;20477;-86
2021/07/25 08:37:16;;;;;;;7.63;6.93;;;25.20;59.40;;;25.06;54.37;97373.22;4994766;28;20472;-88
2021/07/25 08:39:43;;;;;;;8.13;7.33;;;25.70;59.50;;;24.99;53.83;97370.16;4986518;28;20481;-86
2021/07/25 08:42:16;;;;;;;8.07;7.13;;;25.80;58.90;;;25.11;53.60;97356.50;4994087;28;20456;-85
2021/07/25 08:44:48;;;;;;;7.27;6.53;;;26.00;58.80;;;25.13;53.52;97368.03;4995051;28;20488;-82
2021/07/25 08:47:36;;;;;;;9.70;7.60;;;26.20;58.30;;;24.63;55.27;97372.06;4990727;28;20558;-87
2021/07/25 08:50:08;;;;;;;8.70;8.00;;;25.80;58.80;;;24.64;54.33;97372.88;4993742;28;20484;-85
2021/07/25 08:52:38;;;;;;;7.80;7.10;;;25.50;58.60;;;24.30;55.01;97376.09;4999452;28;20454;-87
2021/07/25 08:55:10;;;;;;;7.83;6.97;;;25.20;59.00;;;25.18;53.11;97372.56;4989673;28;20477;-82
2021/07/25 08:57:40;;;;;;;7.47;6.87;;;25.30;59.40;;;24.82;54.04;97371.78;4993081;28;20489;-85
2021/07/25 09:00:10;;;;;;;8.50;6.60;;;25.40;59.20;;;24.79;54.44;97374.38;4993562;28;20473;-85
2021/07/25 09:02:38;;;;;;;8.17;7.40;;;25.60;59.00;;;25.11;53.44;97375.84;4992052;28;20531;-82
2021/07/25 09:05:10;;;;;;;7.80;7.10;;;25.80;58.70;;;24.96;53.76;97368.06;4987236;28;21056;-88
2021/07/25 09:07:40;;;;;;;6.83;6.27;;;25.90;58.60;;;25.30;53.73;97378.22;4992445;28;20453;-85
2021/07/25 09:10:12;;;;;;;8.83;7.43;;;26.10;58.60;;;25.60;52.50;97380.31;4993534;28;20471;-85
2021/07/25 09:12:40;;;;;;;7.60;6.90;;;26.20;58.30;;;25.54;52.49;97381.59;4992080;28;20472;-85
2021/07/25 09:15:11;;;;;;;7.60;6.90;;;26.30;57.90;;;25.57;52.26;97389.25;4990775;28;20473;-86
2021/07/25 09:17:40;;;;;;;8.40;7.57;;;26.40;57.80;;;25.84;51.35;97387.19;4983045;28;20537;-85
2021/07/25 09:20:17;;;;;;;8.03;6.90;;;26.60;57.50;;;25.72;52.30;97394.25;4990752;28;20454;-88
2021/07/25 09:23:08;;;;;;;9.77;7.30;;;26.80;57.40;;;25.71;52.29;97383.50;4987629;28;20461;-84
2021/07/25 09:25:46;;;;;;;8.20;7.37;;;26.60;57.80;;;25.63;52.71;97385.16;4990129;28;20449;-83
2021/07/25 09:28:24;;;;;;;7.77;7.07;;;26.40;57.80;;;25.96;51.77;97386.50;4992162;28;20451;-89
2021/07/25 09:30:52;;;;;;;7.60;6.90;;;26.60;57.90;;;26.20;51.64;97387.88;4988530;28;20530;-86
2021/07/25 09:33:31;;;;;;;7.73;7.03;;;26.90;57.60;;;26.16;50.91;97379.41;4991486;28;20457;-84
2021/07/25 09:36:22;;;;;;;8.40;7.50;;;26.70;57.30;;;26.05;51.89;97378.16;4982490;28;20466;-88
2021/07/25 09:38:52;;;;;;;8.37;7.37;;;26.90;57.50;;;26.00;51.66;97388.25;4990907;28;20210;-87
2021/07/25 09:41:23;;;;;;;8.73;7.00;;;26.80;57.10;;;25.85;51.09;97325.19;4989941;28;20497;-83
2021/07/25 09:44:04;;;;;;;8.57;7.33;;;27.00;57.20;;;25.99;52.30;97389.41;4990304;28;20484;-84
2021/07/25 09:46:50;;;;;;;7.80;7.10;;;26.90;57.30;;;26.12;52.07;97392.28;4991543;28;20465;-85
2021/07/25 09:49:19;;;;;;;7.67;6.90;;;27.10;57.80;;;26.51;51.20;97395.84;4995345;28;20473;-93
2021/07/25 09:51:54;;;;;;;10.83;6.73;;;27.30;57.30;;;26.48;51.08;97390.16;4977616;29;20446;-84
2021/07/25 09:54:56;;;;;;;8.57;7.87;;;27.20;57.20;;;26.11;51.83;97398.97;4979029;28;20444;-87
2021/07/25 10:01:41;;;;;;;8.30;7.40;;;26.30;58.30;;;25.69;53.84;97396.88;4997870;28;20448;-85
2021/07/25 10:07:27;;;;;;;8.10;7.30;;;26.70;58.40;;;26.41;52.45;97391.50;4997085;28;20461;-87
2021/07/25 10:10:20;;;;;;;9.80;7.97;;;27.20;58.20;;;26.37;52.42;97386.97;4996939;28;20501;-84
2021/07/25 10:12:48;;;;;;;7.50;6.63;;;27.40;57.80;;;26.46;52.53;97371.09;4997086;28;20445;-85
2021/07/25 10:15:17;;;;;;;8.30;7.50;;;27.40;58.00;;;25.95;52.57;97301.88;4996697;28;20437;-92
2021/07/25 10:17:55;;;;;;;7.80;6.67;;;27.40;57.90;;;26.59;51.42;97339.56;4996088;28;20473;-92
2021/07/25 10:20:24;;;;;;;6.97;6.00;;;27.70;57.60;;;26.82;50.48;97380.78;4991874;28;20457;-86
2021/07/25 10:22:53;;;;;;;8.07;7.43;;;27.70;56.80;;;26.99;49.70;97398.44;4990914;28;20461;-87
2021/07/25 10:25:24;;;;;;;7.47;6.27;;;27.80;56.40;;;27.32;49.33;97386.53;4992067;28;20441;-87
2021/07/25 10:27:53;;;;;;;7.77;6.90;;;28.00;56.30;;;27.11;49.27;97345.81;5009508;28;20545;-87
2021/07/25 10:30:23;;;;;;;8.10;7.30;;;28.00;56.30;;;27.85;48.36;97366.56;4988505;28;20442;-90
2021/07/25 10:32:53;;;;;;;7.90;7.13;;;28.50;56.10;;;27.63;48.65;97349.19;4997959;28;20532;-88
2021/07/25 10:35:21;;;;;;;7.83;6.93;;;28.70;56.00;;;27.97;48.13;97369.31;4999125;28;20438;-90